Latest Weather Observations for Latrobe Valley

IDV60801

Issued at 8:35 am EDT Friday 28 November 2014 (issued every 30 minutes, with the page automatically refreshed every 10 minutes)

About weather observations | Map of weather stations | Latest weather observations for VIC | Other Formats
Station Details ID: 085280 Name: LATROBE VALLEY AIRPORT Lat: -38.21 Lon: 146.47 Height: 55.7 m
Data from the previous 72 hours. | See also: Recent months at Latrobe Valley
Date/Time
EDT
Temp
°C
App
Temp
°C
Dew
Point
Rel
Hum
%
Delta-T
°C
Wind Press
QNH
hPa
Press
MSL
hPa
Rain
since 9 am
mm
Dir
 
Spd
km/h
Gust
km/h
Spd
kts
Gust
kts
28/08:30am 13.8 11.9 10.4 80 1.8 NNE 11 15 6 8 1024.1 1024.1 0.0
28/08:00am 12.4 12.4 11.0 91 0.7 N 2 6 1 3 1024.1 1024.1 0.0
28/07:30am 11.6 12.0 11.3 98 0.2 CALM 0 0 0 0 1023.9 1023.9 0.0
28/07:00am 10.8 11.1 10.8 100 0.0 CALM 0 0 0 0 1023.5 1023.5 0.0
28/06:30am 10.0 9.7 10.0 100 0.0 N 2 6 1 3 1023.2 1023.1 0.0
28/06:00am 9.9 9.9 9.9 100 0.0 CALM 0 0 0 0 1023.0 1022.9 0.0
28/05:30am 9.9 9.5 9.9 100 0.0 SE 2 6 1 3 1022.7 1022.6 0.0
28/05:00am 9.7 8.9 9.6 99 0.0 NE 4 6 2 3 1022.6 1022.5 0.0
28/04:30am 9.3 8.4 9.2 99 0.0 E 4 7 2 4 1022.2 1022.1 0.0
28/04:00am 8.7 8.0 8.6 99 0.0 E 2 6 1 3 1022.3 1022.2 0.0
28/03:34am 9.3 8.0 9.2 99 0.0 SE 6 9 3 5 1022.4 1022.3 0.0
28/03:30am 9.3 7.8 9.2 99 0.0 SE 7 9 4 5 1022.4 1022.3 0.0
28/03:03am 9.0 7.4 8.9 99 0.0 ESE 7 11 4 6 1022.4 1022.3 0.0
28/03:00am 9.0 7.4 8.9 99 0.0 ESE 7 11 4 6 1022.4 1022.3 0.0
28/02:30am 9.5 8.1 9.4 99 0.0 ESE 7 9 4 5 1022.5 1022.4 0.0
28/02:00am 9.8 8.4 9.7 99 0.0 E 7 11 4 6 1023.0 1022.9 0.0
28/01:44am 9.5 8.1 9.4 99 0.0 ENE 7 9 4 5 1023.3 1023.3 0.0
28/01:30am 9.8 8.6 9.7 99 0.1 E 6 9 3 5 1023.4 1023.4 0.0
28/01:29am 9.9 8.8 9.8 99 0.1 E 6 9 3 5 1023.4 1023.4 0.0
28/01:00am 10.1 8.8 9.8 98 0.2 E 7 11 4 6 1023.7 1023.7 0.0
28/12:58am 10.1 8.8 9.8 98 0.2 E 7 11 4 6 1023.7 1023.7 0.0
28/12:30am 10.3 8.9 9.7 96 0.3 ESE 7 9 4 5 1024.0 1024.0 0.0
28/12:00am 10.3 8.9 8.9 91 0.7 SE 6 7 3 4 1024.4 1024.4 0.0
 
Date/Time
EDT
Temp
°C
App
Temp
°C
Dew
Point
Rel
Hum
%
Delta-T
°C
Wind Press
QNH
hPa
Press
MSL
hPa
Rain
since 9 am
mm
Dir
 
Spd
km/h
Gust
km/h
Spd
kts
Gust
kts
27/11:30pm 11.0 9.6 8.9 87 1.0 SE 6 7 3 4 1024.7 1024.7 0.0
27/11:00pm 11.7 10.4 9.3 85 1.2 S 6 7 3 4 1024.9 1024.9 0.0
27/10:30pm 11.8 10.4 9.7 87 1.1 SW 7 11 4 6 1025.0 1025.0 0.0
27/10:00pm 11.4 9.6 9.5 88 1.0 W 9 11 5 6 1025.0 1025.0 0.0
27/09:30pm 11.4 9.5 9.0 85 1.2 WSW 9 11 5 6 1024.5 1024.5 0.0
27/09:00pm 12.7 10.5 9.5 81 1.6 WSW 11 17 6 9 1024.2 1024.2 0.0
27/08:30pm 13.6 11.0 9.5 76 2.1 WSW 13 19 7 10 1023.9 1023.9 0.0
27/08:00pm 15.0 11.7 9.6 70 2.8 WSW 17 22 9 12 1023.6 1023.6 0.0
27/07:30pm 16.6 12.5 10.0 65 3.5 WSW 22 28 12 15 1023.3 1023.3 0.0
27/07:00pm 17.9 14.3 10.5 62 4.0 SW 20 28 11 15 1023.3 1023.3 0.0
27/06:30pm 18.9 15.0 10.7 59 4.4 SW 22 30 12 16 1023.1 1023.0 0.0
27/06:00pm 19.5 15.5 10.5 56 4.9 SW 22 28 12 15 1023.0 1022.9 0.0
27/05:30pm 20.1 16.3 11.1 56 4.9 SW 22 28 12 15 1022.9 1022.8 0.0
27/05:00pm 20.8 17.4 11.4 55 5.2 SSW 20 26 11 14 1023.0 1022.9 0.0
27/04:30pm 21.1 17.4 11.4 54 5.4 WSW 22 28 12 15 1023.1 1023.0 0.0
27/04:00pm 21.0 17.6 11.1 53 5.4 W 20 32 11 17 1023.4 1023.4 0.0
27/03:30pm 20.9 17.8 10.4 51 5.7 WSW 17 26 9 14 1023.4 1023.4 0.0
27/03:00pm 20.9 17.6 11.0 53 5.4 SW 19 26 10 14 1023.6 1023.6 0.0
27/02:30pm 20.5 17.4 10.3 52 5.5 WSW 17 26 9 14 1023.9 1023.9 0.0
27/02:00pm 20.2 16.6 10.6 54 5.2 WSW 20 28 11 15 1024.2 1024.2 0.0
27/01:30pm 19.6 16.0 10.0 54 5.2 W 19 24 10 13 1024.4 1024.4 0.0
27/01:00pm 19.5 16.0 11.0 58 4.6 WSW 20 32 11 17 1024.6 1024.6 0.0
27/12:30pm 18.4 14.2 8.1 51 5.3 WSW 20 30 11 16 1024.9 1024.9 0.0
27/12:00pm 17.9 13.6 9.3 57 4.5 SW 22 26 12 14 1025.2 1025.2 0.0
27/11:30am 17.4 13.6 9.1 58 4.3 W 19 26 10 14 1025.4 1025.4 0.0
27/11:00am 16.6 12.5 8.8 60 4.0 SW 20 32 11 17 1025.6 1025.6 0.0
27/10:30am 15.1 10.7 7.4 60 3.8 SW 20 32 11 17 1025.6 1025.6 0.0
27/10:00am 15.3 11.6 7.8 61 3.7 SW 17 24 9 13 1025.7 1025.7 0.0
27/09:30am 14.0 10.1 7.3 64 3.3 WSW 17 24 9 13 1025.9 1025.9 0.0
27/09:00am 13.6 9.3 6.9 64 3.2 W 19 24 10 13 1025.9 1025.9 0.2
27/08:30am 13.3 9.0 6.9 65 3.1 WSW 19 24 10 13 1025.9 1025.9 0.2
27/08:00am 12.9 9.3 6.9 67 2.9 W 15 19 8 10 1025.6 1025.6 0.2
27/07:30am 12.1 8.0 6.4 68 2.7 W 17 20 9 11 1025.4 1025.4 0.2
27/07:00am 11.8 8.6 6.9 72 2.3 WSW 13 15 7 8 1025.2 1025.2 0.2
27/06:30am 11.5 7.4 6.2 70 2.5 WSW 17 20 9 11 1024.7 1024.7 0.2
27/06:00am 11.4 8.5 6.5 72 2.3 WSW 11 13 6 7 1024.4 1024.4 0.2
27/05:30am 11.2 8.8 6.9 75 2.0 W 9 15 5 8 1024.1 1024.1 0.2
27/05:00am 11.2 8.3 6.7 74 2.1 W 11 15 6 8 1023.8 1023.8 0.2
27/04:30am 11.4 8.2 6.7 73 2.2 W 13 17 7 9 1023.7 1023.7 0.2
27/04:00am 11.2 8.4 6.9 75 2.0 W 11 15 6 8 1023.5 1023.5 0.2
27/03:30am 11.3 8.6 7.2 76 2.0 W 11 13 6 7 1023.3 1023.3 0.2
27/03:00am 11.4 8.6 6.9 74 2.1 W 11 17 6 9 1023.5 1023.5 0.2
27/02:30am 11.6 8.0 6.7 72 2.3 W 15 19 8 10 1023.7 1023.7 0.2
27/02:00am 11.9 7.5 6.6 70 2.5 W 19 24 10 13 1023.7 1023.7 0.2
27/01:30am 11.7 8.1 6.6 71 2.4 W 15 20 8 11 1023.7 1023.7 0.2
27/01:00am 11.9 8.3 6.6 70 2.5 W 15 20 8 11 1024.1 1024.1 0.2
27/12:30am 11.9 8.3 6.8 71 2.4 W 15 20 8 11 1024.2 1024.2 0.2
27/12:00am 12.0 8.4 6.9 71 2.4 W 15 24 8 13 1024.2 1024.2 0.2
 
Date/Time
EDT
Temp
°C
App
Temp
°C
Dew
Point
Rel
Hum
%
Delta-T
°C
Wind Press
QNH
hPa
Press
MSL
hPa
Rain
since 9 am
mm
Dir
 
Spd
km/h
Gust
km/h
Spd
kts
Gust
kts
26/11:30pm 11.8 7.9 7.1 73 2.3 W 17 22 9 12 1024.0 1024.0 0.2
26/11:00pm 11.5 7.3 7.6 77 1.9 W 19 24 10 13 1023.9 1023.9 0.2
26/10:30pm 11.2 7.6 8.2 82 1.5 W 17 20 9 11 1023.9 1023.9 0.2
26/10:00pm 10.9 7.2 8.0 82 1.4 W 17 20 9 11 1023.8 1023.8 0.2
26/09:30pm 11.3 7.4 8.5 83 1.4 WSW 19 24 10 13 1023.4 1023.4 0.2
26/09:00pm 11.7 7.8 8.6 81 1.5 SW 19 26 10 14 1022.9 1022.8 0.2
26/08:30pm 12.5 7.6 8.4 76 2.0 WSW 24 30 13 16 1022.7 1022.6 0.2
26/08:00pm 13.6 8.3 8.4 71 2.6 WSW 26 33 14 18 1022.4 1022.3 0.2
26/07:30pm 14.7 10.1 9.5 71 2.7 SW 24 33 13 18 1022.0 1021.9 0.2
26/07:00pm 15.0 11.0 10.4 74 2.4 WSW 22 32 12 17 1021.7 1021.6 0.2
26/06:30pm 15.6 10.8 10.4 71 2.7 WSW 26 37 14 20 1021.2 1021.1 0.2
26/06:00pm 15.6 11.7 12.0 79 2.0 WSW 24 32 13 17 1021.0 1020.9 0.2
26/05:30pm 15.4 11.1 12.2 81 1.7 WSW 26 37 14 20 1020.9 1020.8 0.2
26/05:11pm 15.7 13.1 13.9 89 1.0 WSW 20 30 11 16 1021.0 1020.9 0.2
26/05:00pm 15.0 13.4 15.0 100 0.0 WSW 17 24 9 13 1021.0 1020.9 0.2
26/04:58pm 15.0 13.4 15.0 100 0.0 WSW 17 24 9 13 1021.0 1020.9 0.2
26/04:52pm 14.4 13.0 14.4 100 0.0 W 15 19 8 10 1021.1 1021.0 0.2
26/04:51pm 14.3 12.8 14.3 100 0.0 W 15 19 8 10 1021.1 1021.0 0.2
26/04:33pm 14.0 11.0 13.8 99 0.1 SW 22 32 12 17 1021.2 1021.1 0.2
26/04:30pm 13.9 10.4 13.4 97 0.3 SW 24 28 13 15 1021.2 1021.1 0.0
26/04:12pm 14.9 10.4 13.9 94 0.6 SW 30 41 16 22 1021.1 1021.0 0.0
26/04:00pm 16.5 12.4 11.4 72 2.8 WSW 24 32 13 17 1020.8 1020.7 0.0
26/03:30pm 17.6 14.0 11.8 69 3.2 WSW 22 30 12 16 1020.6 1020.5 0.0
26/03:00pm 17.3 12.7 10.9 66 3.4 W 26 37 14 20 1020.7 1020.6 0.0
26/02:30pm 17.6 12.7 11.2 66 3.5 W 28 37 15 20 1020.6 1020.5 0.0
26/02:00pm 17.2 12.5 10.6 65 3.5 W 26 37 14 20 1020.6 1020.5 0.0
26/01:30pm 17.5 12.3 10.4 63 3.8 WNW 28 39 15 21 1020.7 1020.6 0.0
26/01:00pm 17.4 12.5 11.2 67 3.4 W 28 39 15 21 1020.9 1020.8 0.0
26/12:30pm 16.0 11.2 10.3 69 3.0 W 26 35 14 19 1020.8 1020.7 0.0
26/12:00pm 16.0 10.8 10.1 68 3.1 W 28 33 15 18 1020.8 1020.7 0.0
26/11:30am 15.8 10.5 9.7 67 3.2 W 28 35 15 19 1020.8 1020.7 0.0
26/11:00am 16.0 11.5 10.1 68 3.1 W 24 35 13 19 1020.7 1020.6 0.0
26/10:30am 15.0 10.0 9.4 69 2.9 W 26 35 14 19 1020.6 1020.5 0.0
26/10:00am 15.2 9.7 9.1 67 3.1 W 28 35 15 19 1020.7 1020.6 0.0
26/09:30am 14.8 9.4 9.6 71 2.7 W 28 37 15 20 1020.6 1020.5 0.0
26/09:00am 14.0 9.0 9.4 74 2.3 WNW 26 35 14 19 1020.7 1020.6 0.0
26/08:30am 12.8 8.8 8.9 77 2.0 WNW 20 28 11 15 1020.7 1020.6 0.0
26/08:00am 12.1 8.2 8.6 79 1.7 WNW 19 24 10 13 1020.5 1020.4 0.0
26/07:30am 11.8 8.3 8.6 81 1.6 WNW 17 26 9 14 1020.2 1020.1 0.0
26/07:00am 11.3 7.6 8.0 80 1.6 W 17 24 9 13 1020.0 1019.9 0.0
26/06:30am 10.7 7.0 8.1 84 1.3 W 17 22 9 12 1019.8 1019.7 0.0
26/06:00am 10.7 6.5 8.1 84 1.3 W 20 28 11 15 1019.6 1019.5 0.0
26/05:30am 10.1 6.9 8.5 90 0.8 W 15 20 8 11 1019.4 1019.3 0.0
26/05:00am 10.0 6.8 8.4 90 0.8 W 15 20 8 11 1019.3 1019.2 0.0
26/04:30am 10.2 6.9 8.0 86 1.1 W 15 20 8 11 1019.1 1019.0 0.0
26/04:00am 10.2 7.0 8.5 89 0.8 W 15 20 8 11 1019.2 1019.1 0.0
26/03:30am 9.9 7.1 8.7 92 0.6 W 13 17 7 9 1019.1 1019.0 0.0
26/03:00am 10.3 7.2 8.7 90 0.8 W 15 20 8 11 1019.3 1019.2 0.0
26/02:30am 10.5 7.5 9.1 91 0.7 W 15 19 8 10 1019.5 1019.4 0.0
26/02:00am 10.9 8.2 9.0 88 0.9 W 13 17 7 9 1019.8 1019.7 0.0
26/01:30am 11.4 8.7 9.1 86 1.2 W 13 19 7 10 1020.1 1020.0 0.0
26/01:00am 11.4 8.3 9.0 85 1.2 W 15 19 8 10 1020.4 1020.3 0.0
26/12:30am 12.2 8.8 9.2 82 1.5 W 17 22 9 12 1020.6 1020.5 0.0
26/12:00am 12.2 8.8 9.2 82 1.5 W 17 22 9 12 1020.8 1020.7 0.0
 
Date/Time
EDT
Temp
°C
App
Temp
°C
Dew
Point
Rel
Hum
%
Delta-T
°C
Wind Press
QNH
hPa
Press
MSL
hPa
Rain
since 9 am
mm
Dir
 
Spd
km/h
Gust
km/h
Spd
kts
Gust
kts
25/11:30pm 12.2 8.8 9.0 81 1.6 W 17 20 9 11 1021.0 1020.9 0.0
25/11:00pm 12.5 9.5 9.1 80 1.7 WNW 15 20 8 11 1021.1 1021.0 0.0
25/10:30pm 12.6 9.9 9.1 79 1.8 WNW 13 17 7 9 1021.0 1020.9 0.0
25/10:00pm 11.9 9.3 9.5 85 1.2 W 13 19 7 10 1021.0 1020.9 0.0
25/09:30pm 12.0 8.9 9.0 82 1.5 W 15 20 8 11 1020.7 1020.6 0.0
25/09:00pm 12.6 9.2 9.1 79 1.8 W 17 24 9 13 1020.4 1020.3 0.0
25/08:30pm 13.4 8.7 9.1 75 2.2 WSW 24 32 13 17 1020.1 1020.0 0.0
25/08:00pm 14.0 10.0 9.0 72 2.5 SW 20 30 11 16 1019.7 1019.6 0.0
25/07:30pm 15.0 9.4 8.7 66 3.2 SW 28 37 15 20 1019.3 1019.2 0.0
25/07:00pm 16.0 10.7 9.9 67 3.2 SW 28 39 15 21 1018.7 1018.6 0.0
25/06:30pm 16.9 11.6 9.8 63 3.7 SW 28 37 15 20 1018.1 1018.0 0.0
25/06:00pm 17.8 12.6 10.2 61 4.0 SW 28 37 15 20 1017.8 1017.7 0.0
25/05:30pm 17.4 12.6 10.3 63 3.8 SW 26 37 14 20 1017.6 1017.5 0.0
25/05:00pm 19.0 12.6 8.4 50 5.5 W 32 48 17 26 1017.5 1017.4 0.0
25/04:30pm 19.7 13.4 9.0 50 5.6 W 32 43 17 23 1017.5 1017.4 0.0
25/04:00pm 20.3 15.1 10.1 52 5.5 W 28 39 15 21 1017.5 1017.4 0.0
25/03:30pm 19.3 12.4 8.9 51 5.5 W 35 48 19 26 1017.7 1017.6 0.0
25/03:00pm 18.5 12.4 9.8 57 4.6 W 32 41 17 22 1017.8 1017.7 0.0
25/02:30pm 17.7 13.0 10.6 63 3.8 W 26 37 14 20 1017.8 1017.7 0.0
25/02:00pm 18.7 12.6 10.5 59 4.4 W 33 46 18 25 1017.9 1017.8 0.0
25/01:30pm 17.5 11.5 10.1 62 3.9 W 32 48 17 26 1017.8 1017.7 0.0
25/01:00pm 15.7 10.3 9.6 67 3.2 W 28 37 15 20 1017.9 1017.8 0.0
25/12:30pm 16.8 13.2 11.9 73 2.7 WNW 22 32 12 17 1017.9 1017.8 0.0
25/12:01pm 14.2 7.9 11.2 82 1.6 W 35 54 19 29 1018.1 1018.0 0.0
25/12:00pm 14.2 7.5 11.0 81 1.7 W 37 54 20 29 1018.0 1017.9 0.0
25/11:50am 15.1 8.4 9.5 69 2.9 W 35 56 19 30 1017.7 1017.6 0.0
25/11:30am 16.8 12.1 12.1 74 2.6 W 28 37 15 20 1017.5 1017.4 0.0
25/11:10am 14.4 10.1 13.3 93 0.6 W 28 46 15 25 1017.5 1017.4 0.0
25/11:09am 13.9 9.0 12.6 92 0.7 W 30 46 16 25 1017.5 1017.4 0.0
25/11:00am 12.9 7.2 11.8 93 0.6 WNW 33 46 18 25 1017.5 1017.4 0.0
25/10:55am 12.7 6.4 11.1 90 0.8 WNW 35 54 19 29 1017.6 1017.5 0.0
25/10:50am 13.2 6.8 10.6 84 1.4 WNW 35 54 19 29 1017.5 1017.4 0.0
25/10:30am 16.1 10.4 11.7 75 2.4 W 33 46 18 25 1016.9 1016.8 0.0
25/10:00am 15.1 10.5 12.2 83 1.6 W 28 41 15 22 1016.8 1016.7 0.0
25/09:53am 13.6 8.1 12.0 90 0.9 W 32 41 17 22 1016.7 1016.6 0.0
25/09:30am 13.1 7.0 10.6 85 1.3 W 33 52 18 28 1016.6 1016.5 0.0
25/09:00am 14.4 8.3 10.6 78 2.0 W 33 46 18 25 1016.1 1016.0 8.0

Other Formats:

Comma delimited format used in spreadsheet applications
http://www.bom.gov.au/fwo/IDV60801/IDV60801.94891.axf

JavaScript Object Notation format (JSON) in row-major order
http://www.bom.gov.au/fwo/IDV60801/IDV60801.94891.json